createdAt,value
2018-05-31T00:01:10.454Z,1018.92
2018-05-31T00:02:37.872Z,1018.94
2018-05-31T00:04:05.142Z,1018.95
2018-05-31T00:05:32.610Z,1018.98
2018-05-31T00:07:00.036Z,1018.99
2018-05-31T00:08:27.572Z,1019.02
2018-05-31T00:09:54.790Z,1018.99
2018-05-31T00:11:22.394Z,1018.95
2018-05-31T00:12:49.577Z,1018.93
2018-05-31T00:14:16.926Z,1018.90
2018-05-31T00:15:44.059Z,1018.90
2018-05-31T00:17:11.193Z,1018.89
2018-05-31T00:18:38.734Z,1018.92
2018-05-31T00:20:06.137Z,1018.93
2018-05-31T00:21:33.606Z,1019.01
2018-05-31T00:23:00.993Z,1019.25
2018-05-31T00:24:28.319Z,1019.27
2018-05-31T00:25:55.638Z,1019.09
2018-05-31T00:27:23.028Z,1018.95
2018-05-31T00:28:50.662Z,1018.94
2018-05-31T00:30:17.937Z,1019.01
2018-05-31T00:31:45.189Z,1019.07
2018-05-31T00:33:12.755Z,1019.07
2018-05-31T00:34:40.288Z,1019.00
2018-05-31T00:36:07.509Z,1018.93
2018-05-31T00:37:35.256Z,1018.86
2018-05-31T00:39:02.738Z,1018.90
2018-05-31T00:40:30.165Z,1018.98
2018-05-31T00:41:57.726Z,1019.05
2018-05-31T00:43:25.117Z,1019.12
2018-05-31T00:44:52.651Z,1019.12
2018-05-31T00:46:20.259Z,1019.02
2018-05-31T00:47:47.610Z,1019.00
2018-05-31T00:49:15.267Z,1019.01
2018-05-31T00:50:42.477Z,1019.01
2018-05-31T00:52:10.064Z,1018.98
2018-05-31T00:53:37.528Z,1018.93
2018-05-31T00:55:04.896Z,1018.89
2018-05-31T00:56:32.419Z,1018.91
2018-05-31T00:57:59.935Z,1018.96
2018-05-31T00:59:27.284Z,1019.00
2018-05-31T01:00:54.654Z,1018.96
2018-05-31T01:02:22.199Z,1018.89
2018-05-31T01:03:49.386Z,1018.85
2018-05-31T01:05:17.100Z,1018.81
2018-05-31T01:06:44.548Z,1018.83
2018-05-31T01:08:12.097Z,1018.86
2018-05-31T01:09:39.608Z,1018.86
2018-05-31T01:11:07.175Z,1018.82
2018-05-31T01:12:34.631Z,1018.85
2018-05-31T01:14:02.171Z,1018.90
2018-05-31T01:15:29.723Z,1018.96
2018-05-31T01:16:57.153Z,1018.96
2018-05-31T01:18:24.792Z,1018.93
2018-05-31T01:19:52.196Z,1018.91
2018-05-31T01:21:19.561Z,1018.92
2018-05-31T01:22:47.008Z,1018.92
2018-05-31T01:24:14.378Z,1018.89
2018-05-31T01:25:41.802Z,1018.86
2018-05-31T01:27:08.993Z,1018.84
2018-05-31T01:28:36.437Z,1018.82
2018-05-31T01:30:03.907Z,1018.87
2018-05-31T01:31:31.368Z,1018.89
2018-05-31T01:32:58.883Z,1018.92
2018-05-31T01:34:26.129Z,1018.90
2018-05-31T01:35:53.671Z,1018.88
2018-05-31T01:37:20.995Z,1018.84
2018-05-31T01:38:48.402Z,1018.81
2018-05-31T01:40:16.033Z,1018.81
2018-05-31T01:41:43.538Z,1018.79
2018-05-31T01:43:10.845Z,1018.76
2018-05-31T01:44:38.290Z,1018.73
2018-05-31T01:46:05.596Z,1018.71
2018-05-31T01:47:33.087Z,1018.70
2018-05-31T01:49:00.354Z,1018.69
2018-05-31T01:50:28.600Z,1018.67
2018-05-31T01:51:55.418Z,1018.63
2018-05-31T01:53:22.765Z,1018.61
2018-05-31T01:54:50.295Z,1018.60
2018-05-31T01:56:17.716Z,1018.63
2018-05-31T01:57:45.043Z,1018.70
2018-05-31T01:59:12.469Z,1018.74
2018-05-31T02:00:39.960Z,1018.77
2018-05-31T02:02:07.497Z,1018.81
2018-05-31T02:03:35.024Z,1018.79
2018-05-31T02:05:02.348Z,1018.80
2018-05-31T02:06:29.609Z,1018.82
2018-05-31T02:07:57.112Z,1018.84
2018-05-31T02:09:24.338Z,1018.84
2018-05-31T02:10:51.954Z,1018.82
2018-05-31T02:12:19.418Z,1018.79
2018-05-31T02:13:46.800Z,1018.77
2018-05-31T02:15:14.344Z,1018.77
2018-05-31T02:16:42.055Z,1018.75
2018-05-31T02:18:09.449Z,1018.73
2018-05-31T02:19:36.923Z,1018.77
2018-05-31T02:21:04.439Z,1018.80
2018-05-31T02:22:31.864Z,1018.84
2018-05-31T02:23:59.206Z,1018.87
2018-05-31T02:25:26.531Z,1018.85
2018-05-31T02:26:53.806Z,1018.86
2018-05-31T02:28:21.437Z,1018.88
2018-05-31T02:29:48.866Z,1018.87
2018-05-31T02:31:16.600Z,1018.87
2018-05-31T02:32:44.044Z,1018.84
2018-05-31T02:34:11.546Z,1018.87
2018-05-31T02:35:39.118Z,1018.92
2018-05-31T02:37:06.567Z,1018.99
2018-05-31T02:38:34.010Z,1019.01
2018-05-31T02:40:01.230Z,1019.02
2018-05-31T02:41:28.745Z,1019.03
2018-05-31T02:42:56.043Z,1018.99
2018-05-31T02:44:23.458Z,1019.00
2018-05-31T02:45:50.971Z,1019.02
2018-05-31T02:47:18.472Z,1019.01
2018-05-31T02:48:45.875Z,1019.04
2018-05-31T02:50:13.377Z,1019.05
2018-05-31T02:51:40.794Z,1019.05
2018-05-31T02:53:08.499Z,1019.05
2018-05-31T02:54:36.040Z,1019.04
2018-05-31T02:56:03.393Z,1019.02
2018-05-31T02:57:31.053Z,1018.98
2018-05-31T02:58:58.559Z,1019.00
2018-05-31T03:00:25.756Z,1019.04
2018-05-31T03:01:53.224Z,1019.08
2018-05-31T03:03:20.609Z,1019.06
2018-05-31T03:04:48.083Z,1019.04
2018-05-31T03:06:15.392Z,1019.03
2018-05-31T03:07:42.952Z,1019.04
2018-05-31T03:09:10.252Z,1019.02
2018-05-31T03:10:37.799Z,1019.01
2018-05-31T03:12:05.126Z,1019.00
2018-05-31T03:13:32.275Z,1018.99
2018-05-31T03:14:59.802Z,1019.02
2018-05-31T03:16:27.149Z,1019.06
2018-05-31T03:17:54.769Z,1019.07
2018-05-31T03:19:21.969Z,1019.12
2018-05-31T03:20:49.386Z,1019.15
2018-05-31T03:22:16.803Z,1019.17
2018-05-31T03:23:44.242Z,1019.17
2018-05-31T03:25:11.659Z,1019.17
2018-05-31T03:26:39.194Z,1019.15
2018-05-31T03:28:06.642Z,1019.18
2018-05-31T03:29:34.179Z,1019.21
2018-05-31T03:31:01.551Z,1019.15
2018-05-31T03:32:28.869Z,1019.14
2018-05-31T03:33:55.936Z,1019.14
2018-05-31T03:35:24.533Z,1019.19
2018-05-31T03:36:50.956Z,1019.22
2018-05-31T03:38:18.418Z,1019.24
2018-05-31T03:39:45.968Z,1019.26
2018-05-31T03:41:13.296Z,1019.26
2018-05-31T03:42:40.563Z,1019.27
2018-05-31T03:44:08.181Z,1019.27
2018-05-31T03:45:35.300Z,1019.27
2018-05-31T03:47:02.799Z,1019.25
2018-05-31T03:48:30.309Z,1019.26
2018-05-31T03:49:57.564Z,1019.26
2018-05-31T03:51:25.100Z,1019.24
2018-05-31T03:52:52.597Z,1019.26
2018-05-31T03:54:20.008Z,1019.24
2018-05-31T03:55:47.350Z,1019.21
2018-05-31T03:57:14.934Z,1019.20
2018-05-31T03:58:42.473Z,1019.20
2018-05-31T04:00:09.968Z,1019.18
2018-05-31T04:01:37.305Z,1019.18
2018-05-31T04:03:04.679Z,1019.20
2018-05-31T04:04:32.169Z,1019.21
2018-05-31T04:05:59.631Z,1019.21
2018-05-31T04:07:26.917Z,1019.21
2018-05-31T04:08:54.405Z,1019.22
2018-05-31T04:10:21.911Z,1019.21
2018-05-31T04:11:49.341Z,1019.19
2018-05-31T04:13:16.691Z,1019.21
2018-05-31T04:14:44.099Z,1019.21
2018-05-31T04:16:11.582Z,1019.20
2018-05-31T04:17:39.157Z,1019.17
2018-05-31T04:19:06.512Z,1019.13
2018-05-31T04:20:33.942Z,1019.11
2018-05-31T04:22:01.558Z,1019.12
2018-05-31T04:23:29.155Z,1019.11
2018-05-31T04:24:56.549Z,1019.08
2018-05-31T04:26:24.056Z,1019.06
2018-05-31T04:27:51.558Z,1019.05
2018-05-31T04:29:19.005Z,1019.09
2018-05-31T04:30:46.299Z,1019.09
2018-05-31T04:32:13.993Z,1019.10
2018-05-31T04:33:41.439Z,1019.08
2018-05-31T04:35:08.978Z,1019.13
2018-05-31T04:36:36.302Z,1019.13
2018-05-31T04:38:03.843Z,1019.14
2018-05-31T04:39:31.290Z,1019.16
2018-05-31T04:40:58.712Z,1019.18
2018-05-31T04:42:25.943Z,1019.17
2018-05-31T04:43:53.417Z,1019.17
2018-05-31T04:45:20.913Z,1019.17
2018-05-31T04:46:48.402Z,1019.17
2018-05-31T04:48:15.952Z,1019.19
2018-05-31T04:49:43.258Z,1019.22
2018-05-31T04:51:10.811Z,1019.22
2018-05-31T04:52:38.398Z,1019.19
2018-05-31T04:54:06.058Z,1019.15
2018-05-31T04:55:33.447Z,1019.19
2018-05-31T04:57:01.010Z,1019.21
2018-05-31T04:58:28.443Z,1019.20
2018-05-31T04:59:56.120Z,1019.19
2018-05-31T05:01:23.622Z,1019.17
2018-05-31T05:02:51.181Z,1019.14
2018-05-31T05:04:18.618Z,1019.18
2018-05-31T05:05:46.119Z,1019.19
2018-05-31T05:07:13.677Z,1019.24
2018-05-31T05:08:41.405Z,1019.25
2018-05-31T05:10:08.846Z,1019.26
2018-05-31T05:11:36.376Z,1019.28
2018-05-31T05:13:03.908Z,1019.28
2018-05-31T05:14:31.377Z,1019.22
2018-05-31T05:15:58.891Z,1019.22
2018-05-31T05:17:26.315Z,1019.21
2018-05-31T05:18:54.049Z,1019.18
2018-05-31T05:20:21.554Z,1019.22
2018-05-31T05:21:49.131Z,1019.25
2018-05-31T05:23:16.742Z,1019.30
2018-05-31T05:24:44.349Z,1019.31
2018-05-31T05:26:12.000Z,1019.37
2018-05-31T05:27:39.522Z,1019.34
2018-05-31T05:29:06.435Z,1019.36
2018-05-31T05:30:33.832Z,1019.33
2018-05-31T05:32:01.385Z,1019.29
2018-05-31T05:33:28.665Z,1019.33
2018-05-31T05:34:56.084Z,1019.32
2018-05-31T05:36:23.406Z,1019.32
2018-05-31T05:37:51.035Z,1019.28
2018-05-31T05:39:18.322Z,1019.24
2018-05-31T05:40:45.963Z,1019.21
2018-05-31T05:42:13.338Z,1019.24
2018-05-31T05:43:40.864Z,1019.25
2018-05-31T05:45:08.446Z,1019.26
2018-05-31T05:46:35.968Z,1019.24
2018-05-31T05:48:03.502Z,1019.26
2018-05-31T05:49:31.125Z,1019.24
2018-05-31T05:50:58.646Z,1019.24
2018-05-31T05:52:26.053Z,1019.24
2018-05-31T05:53:53.359Z,1019.23
2018-05-31T05:55:20.971Z,1019.24
2018-05-31T05:56:48.648Z,1019.25
2018-05-31T05:58:16.501Z,1019.24
2018-05-31T05:59:43.941Z,1019.28
2018-05-31T06:01:11.354Z,1019.32
2018-05-31T06:02:39.094Z,1019.31
2018-05-31T06:04:06.305Z,1019.32
2018-05-31T06:05:33.305Z,1019.32
2018-05-31T06:07:00.642Z,1019.29
2018-05-31T06:08:28.262Z,1019.32
2018-05-31T06:09:55.940Z,1019.36
2018-05-31T06:11:23.373Z,1019.37
2018-05-31T06:12:50.958Z,1019.35
2018-05-31T06:14:18.603Z,1019.37
2018-05-31T06:15:46.269Z,1019.32
2018-05-31T06:17:13.851Z,1019.34
2018-05-31T06:18:40.892Z,1019.34
2018-05-31T06:20:08.563Z,1019.33
2018-05-31T06:21:35.795Z,1019.32
2018-05-31T06:23:03.457Z,1019.28
2018-05-31T06:24:31.072Z,1019.28
2018-05-31T06:25:58.443Z,1019.29
2018-05-31T06:27:26.273Z,1019.31
2018-05-31T06:28:53.868Z,1019.33
2018-05-31T06:30:21.577Z,1019.33
2018-05-31T06:31:49.160Z,1019.34
2018-05-31T06:33:16.549Z,1019.35
2018-05-31T06:34:44.154Z,1019.35
2018-05-31T06:36:11.893Z,1019.34
2018-05-31T06:37:39.436Z,1019.32
2018-05-31T06:39:07.179Z,1019.31
2018-05-31T06:40:34.825Z,1019.28
2018-05-31T06:42:02.365Z,1019.28
2018-05-31T06:43:30.127Z,1019.29
2018-05-31T06:44:57.565Z,1019.29
2018-05-31T06:46:24.874Z,1019.26
2018-05-31T06:47:52.605Z,1019.26
2018-05-31T06:49:20.047Z,1019.27
2018-05-31T06:50:47.725Z,1019.27
2018-05-31T06:52:15.261Z,1019.26
2018-05-31T06:53:42.908Z,1019.25
2018-05-31T06:55:10.604Z,1019.25
2018-05-31T06:56:38.132Z,1019.23
2018-05-31T06:58:05.679Z,1019.27
2018-05-31T06:59:33.079Z,1019.27
2018-05-31T07:01:00.681Z,1019.28
2018-05-31T07:02:27.780Z,1019.29
2018-05-31T07:03:55.404Z,1019.31
2018-05-31T07:05:22.849Z,1019.32
2018-05-31T07:06:50.500Z,1019.33
2018-05-31T07:08:18.249Z,1019.33
2018-05-31T07:09:45.906Z,1019.32
2018-05-31T07:11:13.006Z,1019.33
2018-05-31T07:12:40.544Z,1019.35
2018-05-31T07:14:08.190Z,1019.33
2018-05-31T07:15:35.818Z,1019.33
2018-05-31T07:17:03.000Z,1019.35
2018-05-31T07:18:30.298Z,1019.35
2018-05-31T07:19:57.808Z,1019.35
2018-05-31T07:21:25.639Z,1019.35
2018-05-31T07:22:52.729Z,1019.37
2018-05-31T07:24:20.341Z,1019.37
2018-05-31T07:25:47.446Z,1019.33
2018-05-31T07:27:14.827Z,1019.37
2018-05-31T07:28:42.380Z,1019.36
2018-05-31T07:30:09.780Z,1019.36
2018-05-31T07:31:37.180Z,1019.32
2018-05-31T07:33:04.595Z,1019.32
2018-05-31T07:34:32.383Z,1019.35
2018-05-31T07:35:59.696Z,1019.36
2018-05-31T07:37:27.382Z,1019.35
2018-05-31T07:38:55.102Z,1019.35
2018-05-31T07:40:22.816Z,1019.34
2018-05-31T07:41:50.236Z,1019.33
2018-05-31T07:43:17.236Z,1019.35
2018-05-31T07:44:44.337Z,1019.36
2018-05-31T07:46:11.995Z,1019.36
2018-05-31T07:47:39.350Z,1019.36
2018-05-31T07:49:07.020Z,1019.38
2018-05-31T07:50:34.609Z,1019.38
2018-05-31T07:52:02.204Z,1019.39
2018-05-31T07:53:29.825Z,1019.38
2018-05-31T07:54:57.185Z,1019.41
2018-05-31T07:56:24.218Z,1019.38
2018-05-31T07:57:52.216Z,1019.36
2018-05-31T07:59:19.794Z,1019.38
2018-05-31T08:00:47.422Z,1019.37
2018-05-31T08:02:15.004Z,1019.37
2018-05-31T08:03:42.734Z,1019.44
2018-05-31T08:05:10.342Z,1019.39
2018-05-31T08:06:37.941Z,1019.43
2018-05-31T08:08:05.539Z,1019.40
2018-05-31T08:09:32.935Z,1019.39
2018-05-31T08:11:00.443Z,1019.39
2018-05-31T08:12:28.184Z,1019.37
2018-05-31T08:13:55.752Z,1019.35
2018-05-31T08:15:23.460Z,1019.36
2018-05-31T08:16:51.127Z,1019.38
2018-05-31T08:18:18.747Z,1019.40
2018-05-31T08:19:46.225Z,1019.39
2018-05-31T08:21:13.896Z,1019.38
2018-05-31T08:22:41.231Z,1019.36
2018-05-31T08:24:08.357Z,1019.36
2018-05-31T08:25:35.911Z,1019.36
2018-05-31T08:27:03.524Z,1019.37
2018-05-31T08:28:31.103Z,1019.37
2018-05-31T08:29:58.766Z,1019.39
2018-05-31T08:31:26.364Z,1019.35
2018-05-31T08:32:53.651Z,1019.37
2018-05-31T08:34:21.228Z,1019.36
2018-05-31T08:35:48.991Z,1019.37
2018-05-31T08:37:16.697Z,1019.37
2018-05-31T08:38:44.394Z,1019.37
2018-05-31T08:40:12.378Z,1019.40
2018-05-31T08:41:39.989Z,1019.40
2018-05-31T08:43:07.231Z,1019.38
2018-05-31T08:44:34.584Z,1019.40
2018-05-31T08:46:02.110Z,1019.38
2018-05-31T08:47:29.679Z,1019.41
2018-05-31T08:48:57.025Z,1019.40
2018-05-31T08:50:24.647Z,1019.40
2018-05-31T08:51:52.187Z,1019.40
2018-05-31T08:53:19.822Z,1019.44
2018-05-31T08:54:47.495Z,1019.45
2018-05-31T08:56:15.200Z,1019.42
2018-05-31T08:57:42.841Z,1019.40
2018-05-31T08:59:10.024Z,1019.40
2018-05-31T09:00:37.602Z,1019.40
2018-05-31T09:02:05.365Z,1019.40
2018-05-31T09:03:32.881Z,1019.38
2018-05-31T09:05:00.123Z,1019.37
2018-05-31T09:06:27.785Z,1019.43
2018-05-31T09:07:55.511Z,1019.35
2018-05-31T09:09:23.203Z,1019.33
2018-05-31T09:10:50.912Z,1019.34
2018-05-31T09:12:18.079Z,1019.30
2018-05-31T09:13:46.029Z,1019.26
2018-05-31T09:15:13.705Z,1019.27
2018-05-31T09:16:41.295Z,1019.25
2018-05-31T09:18:08.866Z,1019.24
2018-05-31T09:19:36.167Z,1019.22
2018-05-31T09:21:03.212Z,1019.18
2018-05-31T09:22:30.569Z,1019.17
2018-05-31T09:23:58.243Z,1019.20
2018-05-31T09:25:25.706Z,1019.17
2018-05-31T09:26:52.448Z,1019.22
2018-05-31T09:28:19.835Z,1019.19
2018-05-31T09:29:47.476Z,1019.17
2018-05-31T09:31:15.037Z,1019.16
2018-05-31T09:32:42.751Z,1019.16
2018-05-31T09:34:10.078Z,1019.17
2018-05-31T09:35:37.713Z,1019.17
2018-05-31T09:37:05.339Z,1019.17
2018-05-31T09:38:33.002Z,1019.18
2018-05-31T09:40:00.591Z,1019.20
2018-05-31T09:41:28.424Z,1019.23
2018-05-31T09:42:56.232Z,1019.24
2018-05-31T09:44:23.827Z,1019.23
2018-05-31T09:45:51.595Z,1019.21
2018-05-31T09:47:19.243Z,1019.24
2018-05-31T09:48:46.821Z,1019.26
2018-05-31T09:50:14.477Z,1019.25
2018-05-31T09:51:41.792Z,1019.21
2018-05-31T09:53:08.802Z,1019.20
2018-05-31T09:54:36.451Z,1019.16
2018-05-31T09:56:03.671Z,1019.15
2018-05-31T09:57:31.360Z,1019.13
2018-05-31T09:58:58.862Z,1019.16
2018-05-31T10:00:26.602Z,1019.16
2018-05-31T10:01:54.230Z,1019.14
2018-05-31T10:03:21.243Z,1019.14
2018-05-31T10:04:48.897Z,1019.14
2018-05-31T10:06:16.417Z,1019.13
2018-05-31T10:07:44.069Z,1019.14
2018-05-31T10:09:11.871Z,1019.16
2018-05-31T10:10:39.002Z,1019.16
2018-05-31T10:12:06.106Z,1019.15
2018-05-31T10:13:33.523Z,1019.14
2018-05-31T10:15:00.841Z,1019.11
2018-05-31T10:16:28.519Z,1019.13
2018-05-31T10:17:56.437Z,1019.16
2018-05-31T10:19:24.057Z,1019.11
2018-05-31T10:20:51.340Z,1019.11
2018-05-31T10:22:18.626Z,1019.12
2018-05-31T10:23:45.527Z,1019.03
2018-05-31T10:25:12.801Z,1019.06
2018-05-31T10:26:40.475Z,1019.02
2018-05-31T10:28:07.621Z,1019.01
2018-05-31T10:29:35.261Z,1018.95
2018-05-31T10:31:02.686Z,1018.98
2018-05-31T10:32:30.381Z,1019.00
2018-05-31T10:33:57.667Z,1019.01
2018-05-31T10:35:26.172Z,1019.02
2018-05-31T10:36:52.711Z,1018.98
2018-05-31T10:38:20.360Z,1018.95
2018-05-31T10:39:48.040Z,1018.92
2018-05-31T10:41:15.565Z,1018.88
2018-05-31T10:42:43.160Z,1018.82
2018-05-31T10:44:10.872Z,1018.81
2018-05-31T10:45:38.524Z,1018.78
2018-05-31T10:47:05.757Z,1018.83
2018-05-31T10:48:32.951Z,1018.81
2018-05-31T10:50:00.404Z,1018.76
2018-05-31T10:51:27.677Z,1018.78
2018-05-31T10:52:55.127Z,1018.74
2018-05-31T10:54:21.971Z,1018.74
2018-05-31T10:55:49.802Z,1018.68
2018-05-31T10:57:17.376Z,1018.69
2018-05-31T10:58:45.146Z,1018.70
2018-05-31T11:00:12.367Z,1018.68
2018-05-31T11:01:39.559Z,1018.65
2018-05-31T11:03:06.855Z,1018.68
2018-05-31T11:04:34.572Z,1018.60
2018-05-31T11:06:01.952Z,1018.56
2018-05-31T11:07:29.594Z,1018.53
2018-05-31T11:08:57.174Z,1018.53
2018-05-31T11:10:24.811Z,1018.57
2018-05-31T11:11:52.414Z,1018.54
2018-05-31T11:13:20.026Z,1018.56
2018-05-31T11:14:47.725Z,1018.51
2018-05-31T11:16:15.504Z,1018.46
2018-05-31T11:17:42.802Z,1018.48
2018-05-31T11:19:10.579Z,1018.46
2018-05-31T11:20:38.101Z,1018.46
2018-05-31T11:22:05.913Z,1018.49
2018-05-31T11:23:33.446Z,1018.44
2018-05-31T11:25:00.921Z,1018.44
2018-05-31T11:26:28.579Z,1018.46
2018-05-31T11:27:56.207Z,1018.46
2018-05-31T11:29:23.575Z,1018.45
2018-05-31T11:30:51.240Z,1018.45
2018-05-31T11:32:18.504Z,1018.40
2018-05-31T11:33:46.020Z,1018.40
2018-05-31T11:35:13.661Z,1018.40
2018-05-31T11:36:41.428Z,1018.38
2018-05-31T11:38:08.965Z,1018.38
2018-05-31T11:39:36.541Z,1018.37
2018-05-31T11:41:04.214Z,1018.37
2018-05-31T11:42:31.540Z,1018.35
2018-05-31T11:43:58.611Z,1018.36
2018-05-31T11:45:26.152Z,1018.35
2018-05-31T11:46:53.805Z,1018.32
2018-05-31T11:48:21.146Z,1018.31
2018-05-31T11:49:48.797Z,1018.29
2018-05-31T11:51:16.570Z,1018.18
2018-05-31T11:52:43.879Z,1018.26
2018-05-31T11:54:11.585Z,1018.30
2018-05-31T11:55:39.431Z,1018.31
2018-05-31T11:57:07.077Z,1018.29
2018-05-31T11:58:34.574Z,1018.34
2018-05-31T12:00:02.342Z,1018.34
2018-05-31T12:01:29.976Z,1018.35
2018-05-31T12:02:57.682Z,1018.30
2018-05-31T12:04:25.027Z,1018.33
2018-05-31T12:05:52.750Z,1018.32
2018-05-31T12:07:20.465Z,1018.33
2018-05-31T12:08:47.786Z,1018.27
2018-05-31T12:10:15.466Z,1018.29
2018-05-31T12:11:43.053Z,1018.26
2018-05-31T12:13:10.873Z,1018.25
2018-05-31T12:14:38.679Z,1018.21
2018-05-31T12:16:06.290Z,1018.22
2018-05-31T12:17:34.138Z,1018.21
2018-05-31T12:19:01.847Z,1018.23
2018-05-31T12:20:29.388Z,1018.25
2018-05-31T12:21:56.945Z,1018.27
2018-05-31T12:23:24.602Z,1018.26
2018-05-31T12:24:52.484Z,1018.30
2018-05-31T12:26:20.300Z,1018.29
2018-05-31T12:27:48.025Z,1018.28
2018-05-31T12:29:15.824Z,1018.25
2018-05-31T12:30:43.575Z,1018.29
2018-05-31T12:32:11.034Z,1018.27
2018-05-31T12:33:38.402Z,1018.25
2018-05-31T12:35:05.942Z,1018.25
2018-05-31T12:36:33.699Z,1018.24
2018-05-31T12:38:01.388Z,1018.17
2018-05-31T12:39:28.679Z,1018.23
2018-05-31T12:40:56.393Z,1018.24
2018-05-31T12:42:24.246Z,1018.26
2018-05-31T12:43:51.410Z,1018.18
2018-05-31T12:45:19.187Z,1018.21
2018-05-31T12:46:47.135Z,1018.22
2018-05-31T12:48:14.544Z,1018.22
2018-05-31T12:49:42.354Z,1018.22
2018-05-31T12:51:10.108Z,1018.19
2018-05-31T12:52:37.572Z,1018.20
2018-05-31T12:54:05.163Z,1018.23
2018-05-31T12:55:32.786Z,1018.19
2018-05-31T12:57:00.522Z,1018.18
2018-05-31T12:58:27.724Z,1018.21
2018-05-31T12:59:55.326Z,1018.27
2018-05-31T13:01:23.153Z,1018.23
2018-05-31T13:02:50.371Z,1018.21
2018-05-31T13:04:18.108Z,1018.15
2018-05-31T13:05:45.304Z,1018.21
2018-05-31T13:07:12.917Z,1018.21
2018-05-31T13:08:40.593Z,1018.24
2018-05-31T13:10:08.345Z,1018.21
2018-05-31T13:11:35.937Z,1018.22
2018-05-31T13:13:03.472Z,1018.14
2018-05-31T13:14:30.897Z,1018.22
2018-05-31T13:15:58.432Z,1018.19
2018-05-31T13:17:26.210Z,1018.16
2018-05-31T13:18:53.495Z,1018.14
2018-05-31T13:20:21.059Z,1018.16
2018-05-31T13:21:48.828Z,1018.20
2018-05-31T13:23:16.576Z,1018.21
2018-05-31T13:24:44.378Z,1018.20
2018-05-31T13:26:11.892Z,1018.18
2018-05-31T13:27:39.643Z,1018.20
2018-05-31T13:29:07.235Z,1018.20
2018-05-31T13:30:35.003Z,1018.24
2018-05-31T13:32:02.609Z,1018.23
2018-05-31T13:33:30.376Z,1018.25
2018-05-31T13:34:57.706Z,1018.26
2018-05-31T13:36:25.527Z,1018.26
2018-05-31T13:37:53.192Z,1018.23
2018-05-31T13:39:20.795Z,1018.25
2018-05-31T13:40:48.448Z,1018.29
2018-05-31T13:42:16.209Z,1018.33
2018-05-31T13:43:43.881Z,1018.32
2018-05-31T13:45:11.605Z,1018.35
2018-05-31T13:46:39.179Z,1018.31
2018-05-31T13:48:06.253Z,1018.32
2018-05-31T13:49:33.572Z,1018.31
2018-05-31T13:51:01.044Z,1018.29
2018-05-31T13:52:28.708Z,1018.35
2018-05-31T13:53:56.360Z,1018.31
2018-05-31T13:55:24.082Z,1018.30
2018-05-31T13:56:51.484Z,1018.29
2018-05-31T13:58:19.170Z,1018.30
2018-05-31T13:59:46.813Z,1018.32
2018-05-31T14:01:13.834Z,1018.32
2018-05-31T14:02:41.490Z,1018.35
2018-05-31T14:04:09.017Z,1018.35
2018-05-31T14:05:36.765Z,1018.36
2018-05-31T14:07:04.253Z,1018.34
2018-05-31T14:08:31.821Z,1018.33
2018-05-31T14:09:58.980Z,1018.36
2018-05-31T14:11:26.405Z,1018.36
2018-05-31T14:12:54.001Z,1018.40
2018-05-31T14:14:21.740Z,1018.40
2018-05-31T14:15:49.477Z,1018.40
2018-05-31T14:17:17.200Z,1018.39
2018-05-31T14:18:44.852Z,1018.39
2018-05-31T14:20:12.547Z,1018.42
2018-05-31T14:21:40.145Z,1018.43
2018-05-31T14:23:08.808Z,1018.42
2018-05-31T14:24:35.326Z,1018.45
2018-05-31T14:26:03.019Z,1018.41
2018-05-31T14:27:30.606Z,1018.42
2018-05-31T14:28:57.999Z,1018.42
2018-05-31T14:30:24.993Z,1018.43
2018-05-31T14:31:52.677Z,1018.40
2018-05-31T14:33:20.301Z,1018.43
2018-05-31T14:34:47.864Z,1018.43
2018-05-31T14:36:15.608Z,1018.44
2018-05-31T14:37:43.319Z,1018.44
2018-05-31T14:39:10.930Z,1018.42
2018-05-31T14:40:38.591Z,1018.46
2018-05-31T14:42:06.097Z,1018.48
2018-05-31T14:43:32.962Z,1018.46
2018-05-31T14:45:00.459Z,1018.49
2018-05-31T14:46:27.978Z,1018.47
2018-05-31T14:47:55.583Z,1018.46
2018-05-31T14:49:23.306Z,1018.49
2018-05-31T14:50:51.008Z,1018.52
2018-05-31T14:52:18.577Z,1018.51
2018-05-31T14:53:46.139Z,1018.52
2018-05-31T14:55:13.780Z,1018.51
2018-05-31T14:56:41.399Z,1018.49
2018-05-31T14:58:09.165Z,1018.48
2018-05-31T14:59:36.682Z,1018.51
2018-05-31T15:01:04.242Z,1018.48
2018-05-31T15:02:31.675Z,1018.52
2018-05-31T15:03:58.860Z,1018.51
2018-05-31T15:05:26.231Z,1018.47
2018-05-31T15:06:53.818Z,1018.46
2018-05-31T15:08:21.497Z,1018.46
2018-05-31T15:09:49.198Z,1018.46
2018-05-31T15:11:16.464Z,1018.47
2018-05-31T15:12:43.728Z,1018.45
2018-05-31T15:14:11.498Z,1018.43
2018-05-31T15:15:39.053Z,1018.42
2018-05-31T15:17:06.331Z,1018.43
2018-05-31T15:18:34.003Z,1018.43
2018-05-31T15:20:01.438Z,1018.46
2018-05-31T15:21:29.161Z,1018.47
2018-05-31T15:22:56.032Z,1018.42
2018-05-31T15:24:23.686Z,1018.42
2018-05-31T15:25:51.288Z,1018.41
2018-05-31T15:27:18.765Z,1018.41
2018-05-31T15:28:46.132Z,1018.38
2018-05-31T15:30:13.566Z,1018.37
2018-05-31T15:31:41.235Z,1018.38
2018-05-31T15:33:08.898Z,1018.36
2018-05-31T15:34:36.136Z,1018.36
2018-05-31T15:36:03.785Z,1018.36
2018-05-31T15:37:30.783Z,1018.34
2018-05-31T15:38:58.399Z,1018.38
2018-05-31T15:40:26.110Z,1018.37
2018-05-31T15:41:53.826Z,1018.33
2018-05-31T15:43:21.478Z,1018.30
2018-05-31T15:44:49.158Z,1018.29
2018-05-31T15:46:16.716Z,1018.30
2018-05-31T15:47:44.294Z,1018.33
2018-05-31T15:49:11.941Z,1018.29
2018-05-31T15:50:39.631Z,1018.29
2018-05-31T15:52:07.253Z,1018.30
2018-05-31T15:53:34.500Z,1018.32
2018-05-31T15:55:02.206Z,1018.31
2018-05-31T15:56:29.548Z,1018.34
2018-05-31T15:57:57.086Z,1018.39
2018-05-31T15:59:24.780Z,1018.46
2018-05-31T16:00:52.424Z,1018.43
2018-05-31T16:02:20.223Z,1018.42
2018-05-31T16:03:47.149Z,1018.42
2018-05-31T16:05:14.787Z,1018.46
2018-05-31T16:06:42.421Z,1018.45
2018-05-31T16:08:09.977Z,1018.44
2018-05-31T16:09:37.481Z,1018.48
2018-05-31T16:11:04.719Z,1018.45
2018-05-31T16:12:32.322Z,1018.43
2018-05-31T16:13:59.950Z,1018.40
2018-05-31T16:15:27.388Z,1018.40
2018-05-31T16:16:54.981Z,1018.43
2018-05-31T16:18:22.454Z,1018.46
2018-05-31T16:19:49.796Z,1018.47
2018-05-31T16:21:17.360Z,1018.47
2018-05-31T16:22:45.011Z,1018.45
2018-05-31T16:24:12.677Z,1018.43
2018-05-31T16:25:40.257Z,1018.45
2018-05-31T16:27:07.847Z,1018.45
2018-05-31T16:28:35.252Z,1018.43
2018-05-31T16:30:02.965Z,1018.40
2018-05-31T16:31:30.592Z,1018.42
2018-05-31T16:32:58.090Z,1018.38
2018-05-31T16:34:24.990Z,1018.39
2018-05-31T16:35:52.300Z,1018.36
2018-05-31T16:37:19.921Z,1018.37
2018-05-31T16:38:47.475Z,1018.33
2018-05-31T16:40:15.013Z,1018.33
2018-05-31T16:41:42.277Z,1018.35
2018-05-31T16:43:10.029Z,1018.37
2018-05-31T16:44:37.480Z,1018.37
2018-05-31T16:46:05.053Z,1018.41
2018-05-31T16:47:32.132Z,1018.37
2018-05-31T16:48:59.431Z,1018.39
2018-05-31T16:50:27.039Z,1018.42
2018-05-31T16:51:54.618Z,1018.42
2018-05-31T16:53:22.323Z,1018.45
2018-05-31T16:54:49.834Z,1018.46
2018-05-31T16:56:17.461Z,1018.43
2018-05-31T16:57:45.144Z,1018.44
2018-05-31T16:59:12.777Z,1018.42
2018-05-31T17:00:39.615Z,1018.42
2018-05-31T17:02:07.066Z,1018.51
2018-05-31T17:03:34.790Z,1018.52
2018-05-31T17:05:02.175Z,1018.49
2018-05-31T17:06:29.785Z,1018.49
2018-05-31T17:07:57.352Z,1018.50
2018-05-31T17:09:24.942Z,1018.49
2018-05-31T17:10:52.380Z,1018.49
2018-05-31T17:12:20.010Z,1018.48
2018-05-31T17:13:47.642Z,1018.50
2018-05-31T17:15:15.278Z,1018.55
2018-05-31T17:16:42.888Z,1018.53
2018-05-31T17:18:10.577Z,1018.51
2018-05-31T17:19:38.214Z,1018.53
2018-05-31T17:21:05.124Z,1018.51
2018-05-31T17:22:32.695Z,1018.55
2018-05-31T17:23:59.836Z,1018.56
2018-05-31T17:25:27.378Z,1018.57
2018-05-31T17:26:54.422Z,1018.57
2018-05-31T17:28:22.291Z,1018.59
2018-05-31T17:29:49.729Z,1018.60
2018-05-31T17:31:17.578Z,1018.63
2018-05-31T17:32:45.198Z,1018.68
2018-05-31T17:34:12.071Z,1018.70
2018-05-31T17:35:38.882Z,1018.72
2018-05-31T17:37:06.411Z,1018.68
2018-05-31T17:38:33.927Z,1018.73